PWSweather.com
Personal Weather Stations
Station Observations
IROGLAN40
AalgaardNO 4330

AalgaardNO 4330

Lat: 58.773, Lon: 5.846

Elevation: 326

Station Type: Davis Vanatge Pro2

Latest ConditionsUpdated 5:50:02 PM GMT+01:01 Monday, Jan 23, 2017
Currently Today's Max Today's Min Today's Average
Temperature 39.7°F4.3°C 41.5°F5.3°C 36.1°F2.3°C 37.7°F3.2°C
Dew Point 37.6°F3.1°C 39.1°F3.9°C 34.1°F1.2°C 35.9°F2.2°C
Winds Calm Calm 2.3 mph WSW3.7 kmh WSW - 0.1 mph 0.2 kmh
Wind Gusts -- 3.5 mph5.6 kmh - -
Humidity 92% 98% 91% 93%
Pressure 30.13 in1020.3 mb 30.18 in1022.0 mb 30.12 in1020.0 mb -
Precipitation - 0.03 in0.8 mm - -
Hour Temp Dew Point Humidity Winds Wind Gusts Pressure Precip Precip Rate Daily Precip Total
05:50 PM 39.7°F4.3°C 37.6°F3.1°C 92% Calm Calm -- 30.13 in1020.3 mb - 0.00 in0.0 mm 0.03 in0.8 mm
05:40 PM 39.7°F4.3°C 37.3°F2.9°C 91% Calm Calm -- 30.13 in1020.3 mb - 0.00 in0.0 mm 0.03 in0.8 mm
05:30 PM 39.7°F4.3°C 37.6°F3.1°C 92% Calm Calm -- 30.13 in1020.3 mb - 0.00 in0.0 mm 0.03 in0.8 mm
05:20 PM 39.8°F4.3°C 37.7°F3.2°C 92% Calm Calm -- 30.13 in1020.3 mb - 0.00 in0.0 mm 0.03 in0.8 mm
05:10 PM 40.0°F4.4°C 37.9°F3.3°C 92% Calm Calm -- 30.13 in1020.3 mb - 0.00 in0.0 mm 0.03 in0.8 mm
05:00 PM 40.2°F4.6°C 37.8°F3.2°C 91% Calm Calm -- 30.12 in1020.0 mb - 0.00 in0.0 mm 0.03 in0.8 mm
04:50 PM 40.4°F4.7°C 38.0°F3.3°C 91% Calm Calm -- 30.13 in1020.3 mb - 0.00 in0.0 mm 0.03 in0.8 mm
04:40 PM 40.4°F4.7°C 38.0°F3.3°C 91% Calm Calm -- 30.12 in1020.0 mb - 0.00 in0.0 mm 0.03 in0.8 mm
04:30 PM 40.6°F4.8°C 38.4°F3.6°C 92% Calm Calm -- 30.12 in1020.0 mb - 0.00 in0.0 mm 0.03 in0.8 mm
04:20 PM 40.7°F4.8°C 38.3°F3.5°C 91% Calm Calm -- 30.13 in1020.3 mb - 0.01 in0.3 mm 0.03 in0.8 mm
04:10 PM 40.7°F4.8°C 38.3°F3.5°C 91% Calm Calm -- 30.13 in1020.3 mb - 0.00 in0.0 mm 0.02 in0.5 mm
04:00 PM 40.8°F4.9°C 38.4°F3.6°C 91% Calm Calm -- 30.13 in1020.3 mb - 0.00 in0.0 mm 0.02 in0.5 mm
03:50 PM 40.8°F4.9°C 38.4°F3.6°C 91% 2.3 mph W3.7 kmh W 3.5 mph5.6 kmh 30.13 in1020.3 mb - 0.00 in0.0 mm 0.02 in0.5 mm
03:40 PM 40.9°F4.9°C 38.5°F3.6°C 91% 1.2 mph W1.9 kmh W 2.3 mph3.7 kmh 30.13 in1020.3 mb - 0.00 in0.0 mm 0.02 in0.5 mm
03:30 PM 40.8°F4.9°C 38.4°F3.6°C 91% Calm Calm 1.2 mph1.9 kmh 30.13 in1020.3 mb - 0.00 in0.0 mm 0.02 in0.5 mm
03:20 PM 40.7°F4.8°C 38.3°F3.5°C 91% Calm Calm -- 30.13 in1020.3 mb - 0.00 in0.0 mm 0.02 in0.5 mm
03:10 PM 40.7°F4.8°C 38.3°F3.5°C 91% Calm Calm 1.2 mph1.9 kmh 30.13 in1020.3 mb - 0.00 in0.0 mm 0.02 in0.5 mm
03:00 PM 40.9°F4.9°C 38.5°F3.6°C 91% Calm Calm -- 30.13 in1020.3 mb - 0.00 in0.0 mm 0.02 in0.5 mm
02:50 PM 41.2°F5.1°C 38.7°F3.7°C 91% 2.3 mph WNW3.7 kmh WNW 3.5 mph5.6 kmh 30.14 in1020.7 mb - 0.00 in0.0 mm 0.02 in0.5 mm
02:40 PM 41.5°F5.3°C 39.1°F3.9°C 91% 2.3 mph WSW3.7 kmh WSW 3.5 mph5.6 kmh 30.14 in1020.7 mb - 0.00 in0.0 mm 0.02 in0.5 mm
02:30 PM 41.1°F5.1°C 38.7°F3.7°C 91% 1.2 mph WNW1.9 kmh WNW 3.5 mph5.6 kmh 30.14 in1020.7 mb - 0.00 in0.0 mm 0.02 in0.5 mm
02:20 PM 40.2°F4.6°C 37.7°F3.2°C 91% Calm Calm -- 30.14 in1020.7 mb - 0.00 in0.0 mm 0.02 in0.5 mm
02:10 PM 39.9°F4.4°C 37.4°F3.0°C 91% Calm Calm -- 30.14 in1020.7 mb - 0.00 in0.0 mm 0.02 in0.5 mm
02:00 PM 39.9°F4.4°C 37.5°F3.1°C 91% Calm Calm -- 30.14 in1020.7 mb - 0.00 in0.0 mm 0.02 in0.5 mm
01:50 PM 39.8°F4.3°C 37.4°F3.0°C 91% Calm Calm -- 30.14 in1020.7 mb - 0.00 in0.0 mm 0.02 in0.5 mm
01:40 PM 39.7°F4.3°C 37.3°F2.9°C 91% Calm Calm -- 30.14 in1020.7 mb - 0.00 in0.0 mm 0.02 in0.5 mm
01:30 PM 39.7°F4.3°C 37.3°F2.9°C 91% Calm Calm -- 30.15 in1021.0 mb - 0.00 in0.0 mm 0.02 in0.5 mm
01:20 PM 39.4°F4.1°C 37.0°F2.8°C 91% Calm Calm -- 30.15 in1021.0 mb - 0.00 in0.0 mm 0.02 in0.5 mm
01:10 PM 39.3°F4.1°C 36.9°F2.7°C 91% Calm Calm -- 30.15 in1021.0 mb - 0.00 in0.0 mm 0.02 in0.5 mm
01:00 PM 39.2°F4.0°C 36.8°F2.7°C 91% Calm Calm 1.2 mph1.9 kmh 30.15 in1021.0 mb - 0.00 in0.0 mm 0.02 in0.5 mm
12:50 PM 38.9°F3.8°C 36.5°F2.5°C 91% Calm Calm -- 30.15 in1021.0 mb - 0.00 in0.0 mm 0.02 in0.5 mm
12:40 PM 39.1°F3.9°C 36.6°F2.6°C 91% Calm Calm -- 30.15 in1021.0 mb - 0.00 in0.0 mm 0.02 in0.5 mm
12:30 PM 39.0°F3.9°C 36.6°F2.6°C 91% Calm Calm -- 30.15 in1021.0 mb - 0.00 in0.0 mm 0.02 in0.5 mm
12:20 PM 38.2°F3.4°C 36.1°F2.3°C 92% Calm Calm -- 30.15 in1021.0 mb - 0.00 in0.0 mm 0.02 in0.5 mm
12:10 PM 38.5°F3.6°C 36.4°F2.4°C 92% Calm Calm -- 30.15 in1021.0 mb - 0.00 in0.0 mm 0.02 in0.5 mm
12:00 PM 39.0°F3.9°C 36.6°F2.6°C 91% Calm Calm -- 30.15 in1021.0 mb - 0.00 in0.0 mm 0.02 in0.5 mm
11:50 AM 38.9°F3.8°C 36.5°F2.5°C 91% Calm Calm -- 30.16 in1021.3 mb - 0.00 in0.0 mm 0.02 in0.5 mm
11:40 AM 37.7°F3.2°C 35.3°F1.8°C 91% Calm Calm -- 30.16 in1021.3 mb - 0.00 in0.0 mm 0.02 in0.5 mm
11:30 AM 37.8°F3.2°C 35.4°F1.9°C 91% Calm Calm -- 30.16 in1021.3 mb - 0.00 in0.0 mm 0.02 in0.5 mm
11:20 AM 37.6°F3.1°C 35.2°F1.8°C 91% Calm Calm -- 30.16 in1021.3 mb - 0.01 in0.3 mm 0.02 in0.5 mm
11:10 AM 37.5°F3.1°C 35.1°F1.7°C 91% Calm Calm -- 30.16 in1021.3 mb - 0.00 in0.0 mm 0.02 in0.5 mm
11:00 AM 37.1°F2.8°C 34.7°F1.5°C 91% Calm Calm -- 30.16 in1021.3 mb - 0.00 in0.0 mm 0.02 in0.5 mm
10:50 AM 36.7°F2.6°C 34.6°F1.4°C 92% Calm Calm -- 30.16 in1021.3 mb - 0.00 in0.0 mm 0.02 in0.5 mm
10:40 AM 36.6°F2.6°C 34.2°F1.2°C 91% Calm Calm -- 30.16 in1021.3 mb - 0.00 in0.0 mm 0.02 in0.5 mm
10:30 AM 36.5°F2.5°C 34.1°F1.2°C 91% Calm Calm -- 30.15 in1021.0 mb - 0.00 in0.0 mm 0.02 in0.5 mm
10:20 AM 36.6°F2.6°C 34.2°F1.2°C 91% Calm Calm -- 30.15 in1021.0 mb - 0.00 in0.0 mm 0.02 in0.5 mm
10:10 AM 36.7°F2.6°C 34.6°F1.4°C 92% Calm Calm -- 30.15 in1021.0 mb - 0.00 in0.0 mm 0.02 in0.5 mm
10:00 AM 36.8°F2.7°C 34.7°F1.5°C 92% Calm Calm -- 30.15 in1021.0 mb - 0.01 in0.3 mm 0.02 in0.5 mm
09:50 AM 36.7°F2.6°C 34.6°F1.4°C 92% Calm Calm -- 30.15 in1021.0 mb - 0.00 in0.0 mm 0.01 in0.3 mm
09:40 AM 36.6°F2.6°C 34.2°F1.2°C 91% Calm Calm -- 30.15 in1021.0 mb - 0.00 in0.0 mm 0.01 in0.3 mm
09:30 AM 36.6°F2.6°C 34.2°F1.2°C 91% Calm Calm -- 30.15 in1021.0 mb - 0.00 in0.0 mm 0.01 in0.3 mm
09:20 AM 36.5°F2.5°C 34.2°F1.2°C 91% Calm Calm -- 30.15 in1021.0 mb - 0.00 in0.0 mm 0.01 in0.3 mm
09:10 AM 36.6°F2.6°C 34.2°F1.2°C 91% Calm Calm -- 30.15 in1021.0 mb - 0.01 in0.3 mm 0.01 in0.3 mm
09:00 AM 36.5°F2.5°C 34.2°F1.2°C 91% Calm Calm -- 30.15 in1021.0 mb - 0.00 in0.0 mm 0.00 in0.0 mm
08:50 AM 36.5°F2.5°C 34.1°F1.2°C 91% Calm Calm -- 30.15 in1021.0 mb - 0.00 in0.0 mm 0.00 in0.0 mm
08:40 AM 36.5°F2.5°C 34.1°F1.2°C 91% Calm Calm -- 30.14 in1020.7 mb - 0.00 in0.0 mm 0.00 in0.0 mm
08:30 AM 36.5°F2.5°C 34.1°F1.2°C 91% Calm Calm -- 30.14 in1020.7 mb - 0.00 in0.0 mm 0.00 in0.0 mm
08:20 AM 36.4°F2.4°C 34.3°F1.3°C 92% Calm Calm -- 30.14 in1020.7 mb - 0.00 in0.0 mm 0.00 in0.0 mm
08:10 AM 36.4°F2.4°C 34.3°F1.3°C 92% Calm Calm -- 30.14 in1020.7 mb - 0.00 in0.0 mm 0.00 in0.0 mm
08:00 AM 36.4°F2.4°C 34.3°F1.3°C 92% Calm Calm -- 30.14 in1020.7 mb - 0.00 in0.0 mm 0.00 in0.0 mm
07:50 AM 36.4°F2.4°C 34.3°F1.3°C 92% Calm Calm -- 30.14 in1020.7 mb - 0.00 in0.0 mm 0.00 in0.0 mm
07:40 AM 36.5°F2.5°C 34.4°F1.3°C 92% Calm Calm -- 30.14 in1020.7 mb - 0.00 in0.0 mm 0.00 in0.0 mm
07:30 AM 36.4°F2.4°C 34.3°F1.3°C 92% Calm Calm -- 30.14 in1020.7 mb - 0.00 in0.0 mm 0.00 in0.0 mm
07:20 AM 36.4°F2.4°C 34.3°F1.3°C 92% Calm Calm -- 30.14 in1020.7 mb - 0.00 in0.0 mm 0.00 in0.0 mm
07:10 AM 36.4°F2.4°C 34.3°F1.3°C 92% Calm Calm -- 30.14 in1020.7 mb - 0.00 in0.0 mm 0.00 in0.0 mm
07:00 AM 36.4°F2.4°C 34.3°F1.3°C 92% Calm Calm -- 30.14 in1020.7 mb - 0.00 in0.0 mm 0.00 in0.0 mm
06:50 AM 36.4°F2.4°C 34.3°F1.3°C 92% Calm Calm -- 30.14 in1020.7 mb - 0.00 in0.0 mm 0.00 in0.0 mm
06:40 AM 36.4°F2.4°C 34.3°F1.3°C 92% Calm Calm -- 30.14 in1020.7 mb - 0.00 in0.0 mm 0.00 in0.0 mm
06:30 AM 36.5°F2.5°C 34.4°F1.3°C 92% Calm Calm -- 30.14 in1020.7 mb - 0.00 in0.0 mm 0.00 in0.0 mm
06:20 AM 36.5°F2.5°C 34.1°F1.2°C 91% Calm Calm -- 30.14 in1020.7 mb - 0.00 in0.0 mm 0.00 in0.0 mm
06:10 AM 36.5°F2.5°C 34.1°F1.2°C 91% Calm Calm -- 30.14 in1020.7 mb - 0.00 in0.0 mm 0.00 in0.0 mm
06:00 AM 36.4°F2.4°C 34.3°F1.3°C 92% Calm Calm -- 30.14 in1020.7 mb - 0.00 in0.0 mm 0.00 in0.0 mm
05:50 AM 36.4°F2.4°C 34.3°F1.3°C 92% Calm Calm -- 30.14 in1020.7 mb - 0.00 in0.0 mm 0.00 in0.0 mm
05:40 AM 36.4°F2.4°C 34.3°F1.3°C 92% Calm Calm -- 30.14 in1020.7 mb - 0.00 in0.0 mm 0.00 in0.0 mm
05:30 AM 36.4°F2.4°C 34.3°F1.3°C 92% Calm Calm -- 30.14 in1020.7 mb - 0.00 in0.0 mm 0.00 in0.0 mm
05:20 AM 36.4°F2.4°C 34.3°F1.3°C 92% Calm Calm -- 30.14 in1020.7 mb - 0.00 in0.0 mm 0.00 in0.0 mm
05:10 AM 36.4°F2.4°C 34.3°F1.3°C 92% Calm Calm -- 30.14 in1020.7 mb - 0.00 in0.0 mm 0.00 in0.0 mm
05:00 AM 36.5°F2.5°C 34.3°F1.3°C 92% Calm Calm -- 30.14 in1020.7 mb - 0.00 in0.0 mm 0.00 in0.0 mm
04:50 AM 36.1°F2.3°C 35.6°F2.0°C 98% Calm Calm -- 30.15 in1021.0 mb - 0.00 in0.0 mm 0.00 in0.0 mm
04:40 AM 36.1°F2.3°C 35.6°F2.0°C 98% Calm Calm 1.2 mph1.9 kmh 30.15 in1021.0 mb - 0.00 in0.0 mm 0.00 in0.0 mm
04:30 AM 36.1°F2.3°C 35.6°F2.0°C 98% Calm Calm -- 30.15 in1021.0 mb - 0.00 in0.0 mm 0.00 in0.0 mm
04:20 AM 36.1°F2.3°C 35.6°F2.0°C 98% Calm Calm -- 30.15 in1021.0 mb - 0.00 in0.0 mm 0.00 in0.0 mm
04:10 AM 36.1°F2.3°C 35.6°F2.0°C 98% Calm Calm -- 30.15 in1021.0 mb - 0.00 in0.0 mm 0.00 in0.0 mm
04:00 AM 36.2°F2.3°C 35.7°F2.1°C 98% Calm Calm -- 30.15 in1021.0 mb - 0.00 in0.0 mm 0.00 in0.0 mm
03:50 AM 36.1°F2.3°C 35.6°F2.0°C 98% Calm Calm 1.2 mph1.9 kmh 30.15 in1021.0 mb - 0.00 in0.0 mm 0.00 in0.0 mm
03:40 AM 36.3°F2.4°C 35.8°F2.1°C 98% Calm Calm -- 30.15 in1021.0 mb - 0.00 in0.0 mm 0.00 in0.0 mm
03:30 AM 36.5°F2.5°C 36.0°F2.2°C 98% Calm Calm -- 30.15 in1021.0 mb - 0.00 in0.0 mm 0.00 in0.0 mm
03:20 AM 36.4°F2.4°C 35.9°F2.2°C 98% Calm Calm -- 30.15 in1021.0 mb - 0.00 in0.0 mm 0.00 in0.0 mm
03:10 AM 36.3°F2.4°C 35.8°F2.1°C 98% Calm Calm 1.2 mph1.9 kmh 30.16 in1021.3 mb - 0.00 in0.0 mm 0.00 in0.0 mm
03:00 AM 36.3°F2.4°C 35.8°F2.1°C 98% Calm Calm -- 30.16 in1021.3 mb - 0.00 in0.0 mm 0.00 in0.0 mm
02:50 AM 36.3°F2.4°C 35.8°F2.1°C 98% Calm Calm -- 30.16 in1021.3 mb - 0.00 in0.0 mm 0.00 in0.0 mm
02:40 AM 36.3°F2.4°C 35.8°F2.1°C 98% Calm Calm 1.2 mph1.9 kmh 30.16 in1021.3 mb - 0.00 in0.0 mm 0.00 in0.0 mm
02:30 AM 36.2°F2.3°C 35.7°F2.1°C 98% Calm Calm -- 30.16 in1021.3 mb - 0.00 in0.0 mm 0.00 in0.0 mm
02:20 AM 36.2°F2.3°C 35.7°F2.1°C 98% Calm Calm -- 30.16 in1021.3 mb - 0.00 in0.0 mm 0.00 in0.0 mm
02:10 AM 36.2°F2.3°C 35.7°F2.1°C 98% Calm Calm -- 30.17 in1021.7 mb - 0.00 in0.0 mm 0.00 in0.0 mm
02:00 AM 36.3°F2.4°C 35.8°F2.1°C 98% Calm Calm -- 30.17 in1021.7 mb - 0.00 in0.0 mm 0.00 in0.0 mm
01:50 AM 36.3°F2.4°C 35.8°F2.1°C 98% Calm Calm 1.2 mph1.9 kmh 30.17 in1021.7 mb - 0.00 in0.0 mm 0.00 in0.0 mm
01:40 AM 36.1°F2.3°C 35.6°F2.0°C 98% Calm Calm -- 30.17 in1021.7 mb - 0.00 in0.0 mm 0.00 in0.0 mm
01:30 AM 36.4°F2.4°C 35.9°F2.2°C 98% Calm Calm -- 30.18 in1022.0 mb - 0.00 in0.0 mm 0.00 in0.0 mm
01:20 AM 36.4°F2.4°C 35.9°F2.2°C 98% Calm Calm -- 30.18 in1022.0 mb - 0.00 in0.0 mm 0.00 in0.0 mm
01:10 AM 36.2°F2.3°C 35.7°F2.1°C 98% Calm Calm -- 30.17 in1021.7 mb - 0.00 in0.0 mm 0.00 in0.0 mm
01:00 AM 36.3°F2.4°C 35.8°F2.1°C 98% Calm Calm -- 30.18 in1022.0 mb - 0.00 in0.0 mm 0.00 in0.0 mm
12:50 AM 36.3°F2.4°C 35.8°F2.1°C 98% Calm Calm -- 30.18 in1022.0 mb - 0.00 in0.0 mm 0.00 in0.0 mm
12:40 AM 36.2°F2.3°C 35.7°F2.1°C 98% Calm Calm 1.2 mph1.9 kmh 30.18 in1022.0 mb - 0.00 in0.0 mm 0.00 in0.0 mm
12:30 AM 36.2°F2.3°C 35.7°F2.1°C 98% Calm Calm 1.2 mph1.9 kmh 30.18 in1022.0 mb - 0.00 in0.0 mm 0.00 in0.0 mm
12:20 AM 36.2°F2.3°C 35.7°F2.1°C 98% Calm Calm -- 30.18 in1022.0 mb - 0.00 in0.0 mm 0.00 in0.0 mm
12:10 AM 36.4°F2.4°C 35.9°F2.2°C 98% Calm Calm 1.2 mph1.9 kmh 30.18 in1022.0 mb - 0.00 in0.0 mm 0.00 in0.0 mm
12:00 AM 36.7°F2.6°C 36.2°F2.3°C 98% Calm Calm -- 30.18 in1022.0 mb - 0.00 in0.0 mm 0.00 in0.0 mm